createdAt,value
2023-02-22T00:01:21.807Z,26.15
2023-02-22T00:03:49.060Z,30.02
2023-02-22T00:06:16.999Z,24.65
2023-02-22T00:08:43.539Z,29.00
2023-02-22T00:11:09.999Z,29.50
2023-02-22T00:13:36.988Z,30.33
2023-02-22T00:16:03.778Z,28.70
2023-02-22T00:18:30.127Z,28.45
2023-02-22T00:20:59.921Z,29.55
2023-02-22T00:23:28.419Z,27.33
2023-02-22T00:25:55.574Z,28.60
2023-02-22T00:28:24.194Z,27.70
2023-02-22T00:30:51.084Z,27.00
2023-02-22T00:33:17.864Z,26.63
2023-02-22T00:35:45.832Z,26.77
2023-02-22T00:38:13.226Z,28.27
2023-02-22T00:40:40.190Z,25.60
2023-02-22T00:43:07.122Z,22.85
2023-02-22T00:45:34.507Z,23.95
2023-02-22T00:48:01.490Z,23.38
2023-02-22T00:50:28.804Z,18.70
2023-02-22T00:52:56.413Z,26.05
2023-02-22T00:55:33.234Z,25.70
2023-02-22T00:57:59.722Z,26.17
2023-02-22T01:00:27.605Z,25.23
2023-02-22T01:02:55.933Z,26.63
2023-02-22T01:05:23.820Z,27.83
2023-02-22T01:07:50.673Z,27.33
2023-02-22T01:10:19.446Z,27.10
2023-02-22T01:12:49.938Z,29.63
2023-02-22T01:15:21.606Z,34.72
2023-02-22T01:17:48.649Z,32.38
2023-02-22T01:20:15.754Z,37.28
2023-02-22T01:22:43.366Z,36.40
2023-02-22T01:25:10.723Z,32.05
2023-02-22T01:27:38.417Z,32.13
2023-02-22T01:30:08.594Z,34.10
2023-02-22T01:32:39.260Z,32.60
2023-02-22T01:35:08.535Z,30.15
2023-02-22T01:37:35.513Z,29.33
2023-02-22T01:40:02.135Z,27.95
2023-02-22T01:42:29.527Z,26.92
2023-02-22T01:45:14.902Z,28.00
2023-02-22T01:47:41.410Z,27.17
2023-02-22T01:50:10.623Z,27.27
2023-02-22T01:52:37.405Z,26.10
2023-02-22T01:55:03.925Z,25.77
2023-02-22T01:57:35.132Z,25.40
2023-02-22T02:00:12.126Z,25.60
2023-02-22T02:02:48.070Z,27.33
2023-02-22T02:05:14.554Z,26.83
2023-02-22T02:07:41.315Z,25.90
2023-02-22T02:10:14.216Z,25.92
2023-02-22T02:12:42.957Z,26.50
2023-02-22T02:15:25.227Z,25.77
2023-02-22T02:17:53.047Z,27.15
2023-02-22T02:20:27.202Z,27.88
2023-02-22T02:23:08.856Z,28.75
2023-02-22T02:25:35.231Z,26.00
2023-02-22T02:28:02.185Z,27.40
2023-02-22T02:30:28.649Z,28.25
2023-02-22T02:32:56.400Z,26.92
2023-02-22T02:35:28.590Z,24.20
2023-02-22T02:37:57.748Z,26.50
2023-02-22T02:40:30.381Z,27.30
2023-02-22T02:43:15.225Z,27.80
2023-02-22T02:45:48.102Z,28.67
2023-02-22T02:48:15.649Z,27.50
2023-02-22T02:50:48.198Z,29.60
2023-02-22T02:53:17.158Z,27.63
2023-02-22T02:55:43.674Z,27.85
2023-02-22T02:58:16.361Z,20.65
2023-02-22T03:00:42.969Z,27.08
2023-02-22T03:03:10.355Z,28.38
2023-02-22T03:05:55.447Z,27.27
2023-02-22T03:08:30.848Z,26.40
2023-02-22T03:11:01.721Z,27.73
2023-02-22T03:13:40.218Z,29.48
2023-02-22T03:16:06.558Z,30.77
2023-02-22T03:18:35.688Z,28.67
2023-02-22T03:21:14.356Z,31.75
2023-02-22T03:23:46.929Z,30.85
2023-02-22T03:26:14.955Z,32.20
2023-02-22T03:28:43.006Z,30.92
2023-02-22T03:31:12.958Z,30.55
2023-02-22T03:33:42.122Z,29.60
2023-02-22T03:36:16.078Z,25.90
2023-02-22T03:38:43.495Z,28.42
2023-02-22T03:41:10.169Z,19.88
2023-02-22T03:43:39.055Z,26.90
2023-02-22T03:46:06.104Z,30.20
2023-02-22T03:48:51.389Z,31.08
2023-02-22T03:51:18.837Z,32.22
2023-02-22T03:53:45.481Z,29.55
2023-02-22T03:56:14.996Z,30.65
2023-02-22T03:58:44.207Z,29.95
2023-02-22T04:01:11.093Z,29.77
2023-02-22T04:03:37.544Z,29.00
2023-02-22T04:06:04.025Z,28.23
2023-02-22T04:08:30.450Z,23.98
2023-02-22T04:10:56.845Z,29.08
2023-02-22T04:13:23.281Z,27.13
2023-02-22T04:15:49.689Z,27.13
2023-02-22T04:18:16.249Z,25.65
2023-02-22T04:20:43.231Z,26.90
2023-02-22T04:23:09.590Z,26.70
2023-02-22T04:25:36.031Z,26.30
2023-02-22T04:28:02.708Z,25.08
2023-02-22T04:30:30.247Z,26.23
2023-02-22T04:32:56.990Z,26.13
2023-02-22T04:35:23.727Z,24.42
2023-02-22T04:37:50.096Z,25.75
2023-02-22T04:40:16.877Z,28.23
2023-02-22T04:42:43.236Z,28.00
2023-02-22T04:45:10.019Z,28.48
2023-02-22T04:47:36.910Z,28.20
2023-02-22T04:50:04.767Z,27.90
2023-02-22T04:52:31.168Z,28.35
2023-02-22T04:54:57.558Z,26.20
2023-02-22T04:57:23.999Z,24.13
2023-02-22T04:59:51.179Z,25.27
2023-02-22T05:02:18.264Z,26.13
2023-02-22T05:04:45.214Z,26.92
2023-02-22T05:07:11.671Z,27.35
2023-02-22T05:09:38.033Z,26.48
2023-02-22T05:12:04.649Z,28.33
2023-02-22T05:14:30.991Z,25.50
2023-02-22T05:16:57.697Z,27.17
2023-02-22T05:19:24.478Z,25.23
2023-02-22T05:21:50.824Z,22.38
2023-02-22T05:24:17.373Z,27.77
2023-02-22T05:26:44.135Z,27.58
2023-02-22T05:29:10.508Z,27.02
2023-02-22T05:31:37.003Z,25.05
2023-02-22T05:34:03.410Z,26.38
2023-02-22T05:36:29.778Z,27.92
2023-02-22T05:38:56.149Z,26.70
2023-02-22T05:41:22.562Z,27.00
2023-02-22T05:43:48.912Z,27.83
2023-02-22T05:46:15.556Z,23.05
2023-02-22T05:48:41.973Z,20.40
2023-02-22T05:51:10.652Z,24.45
2023-02-22T05:53:37.583Z,25.67
2023-02-22T05:56:04.153Z,25.75
2023-02-22T05:58:30.667Z,26.70
2023-02-22T06:00:56.990Z,25.08
2023-02-22T06:03:23.377Z,25.65
2023-02-22T06:05:49.887Z,23.70
2023-02-22T06:08:18.020Z,22.15
2023-02-22T06:10:44.606Z,22.95
2023-02-22T06:13:10.982Z,18.65
2023-02-22T06:15:37.421Z,21.75
2023-02-22T06:18:03.897Z,19.67
2023-02-22T06:20:30.469Z,21.42
2023-02-22T06:22:58.429Z,21.67
2023-02-22T06:25:26.360Z,15.45
2023-02-22T06:27:52.993Z,20.65
2023-02-22T06:30:21.750Z,21.48
2023-02-22T06:32:48.268Z,21.67
2023-02-22T06:35:14.843Z,15.30
2023-02-22T06:37:41.224Z,18.48
2023-02-22T06:40:08.239Z,19.73
2023-02-22T06:42:34.662Z,19.48
2023-02-22T06:45:01.077Z,14.75
2023-02-22T06:47:27.525Z,16.63
2023-02-22T06:49:54.717Z,18.25
2023-02-22T06:52:21.518Z,18.35
2023-02-22T06:54:47.879Z,15.52
2023-02-22T06:57:14.221Z,17.77
2023-02-22T06:59:40.772Z,18.30
2023-02-22T07:02:07.084Z,15.93
2023-02-22T07:04:33.455Z,17.50
2023-02-22T07:07:00.202Z,12.30
2023-02-22T07:09:26.667Z,16.90
2023-02-22T07:11:52.989Z,14.13
2023-02-22T07:14:19.398Z,14.73
2023-02-22T07:16:45.731Z,17.25
2023-02-22T07:19:12.067Z,16.40
2023-02-22T07:21:38.469Z,16.85
2023-02-22T07:24:05.562Z,17.30
2023-02-22T07:26:38.000Z,16.50
2023-02-22T07:29:04.445Z,14.13
2023-02-22T07:31:34.777Z,17.38
2023-02-22T07:34:01.172Z,14.15
2023-02-22T07:36:27.510Z,12.75
2023-02-22T07:38:53.847Z,16.20
2023-02-22T07:41:20.242Z,15.95
2023-02-22T07:43:46.635Z,15.13
2023-02-22T07:46:12.978Z,16.52
2023-02-22T07:48:39.649Z,16.33
2023-02-22T07:51:06.127Z,17.05
2023-02-22T07:53:33.569Z,17.30
2023-02-22T07:56:01.249Z,15.80
2023-02-22T07:58:29.197Z,14.90
2023-02-22T08:00:55.604Z,16.65
2023-02-22T08:03:23.185Z,14.73
2023-02-22T08:05:53.440Z,17.65
2023-02-22T08:08:20.219Z,15.30
2023-02-22T08:10:46.964Z,17.00
2023-02-22T08:13:13.412Z,14.02
2023-02-22T08:15:40.643Z,18.45
2023-02-22T08:18:12.001Z,16.98
2023-02-22T08:20:39.204Z,14.20
2023-02-22T08:23:06.400Z,14.52
2023-02-22T08:25:33.133Z,17.00
2023-02-22T08:28:04.696Z,12.38
2023-02-22T08:30:32.359Z,13.32
2023-02-22T08:32:59.520Z,13.25
2023-02-22T08:35:27.400Z,13.13
2023-02-22T08:37:55.641Z,15.82
2023-02-22T08:40:23.204Z,11.13
2023-02-22T08:42:49.686Z,16.52
2023-02-22T08:45:16.570Z,16.10
2023-02-22T08:47:43.226Z,15.40
2023-02-22T08:50:11.370Z,14.48
2023-02-22T08:52:37.744Z,14.80
2023-02-22T08:55:04.280Z,14.40
2023-02-22T08:57:31.781Z,14.35
2023-02-22T08:59:58.373Z,15.95
2023-02-22T09:02:25.039Z,12.38
2023-02-22T09:04:51.377Z,14.98
2023-02-22T09:07:17.954Z,14.40
2023-02-22T09:09:44.658Z,13.55
2023-02-22T09:12:11.479Z,14.35
2023-02-22T09:14:37.899Z,11.32
2023-02-22T09:17:05.828Z,14.57
2023-02-22T09:19:32.345Z,15.00
2023-02-22T09:22:00.065Z,13.95
2023-02-22T09:24:26.858Z,10.40
2023-02-22T09:26:56.458Z,11.65
2023-02-22T09:29:24.248Z,16.23
2023-02-22T09:31:52.026Z,15.70
2023-02-22T09:34:20.115Z,16.80
2023-02-22T09:36:47.745Z,14.75
2023-02-22T09:39:15.441Z,15.13
2023-02-22T09:41:44.567Z,13.30
2023-02-22T09:44:19.444Z,10.13
2023-02-22T09:46:47.263Z,15.83
2023-02-22T09:49:19.541Z,10.35
2023-02-22T09:51:49.362Z,13.23
2023-02-22T09:54:45.144Z,11.63
2023-02-22T09:57:22.786Z,15.32
2023-02-22T10:00:13.301Z,12.75
2023-02-22T10:02:44.410Z,8.85
2023-02-22T10:05:17.815Z,11.95
2023-02-22T10:07:47.580Z,13.13
2023-02-22T10:10:24.398Z,16.10
2023-02-22T10:12:53.474Z,14.90
2023-02-22T10:15:29.976Z,14.07
2023-02-22T10:18:03.548Z,14.15
2023-02-22T10:20:45.439Z,15.57
2023-02-22T10:23:15.977Z,15.30
2023-02-22T10:25:43.695Z,13.98
2023-02-22T10:28:13.296Z,13.93
2023-02-22T10:30:42.205Z,15.73
2023-02-22T10:33:08.519Z,14.77
2023-02-22T10:35:36.127Z,15.70
2023-02-22T10:38:23.581Z,14.45
2023-02-22T10:41:03.169Z,15.52
2023-02-22T10:43:30.229Z,14.80
2023-02-22T10:46:00.396Z,15.27
2023-02-22T10:48:27.536Z,14.50
2023-02-22T10:50:57.343Z,13.05
2023-02-22T10:53:23.774Z,14.43
2023-02-22T10:56:12.680Z,14.05
2023-02-22T10:58:44.974Z,14.15
2023-02-22T11:01:18.877Z,12.38
2023-02-22T11:03:45.617Z,14.38
2023-02-22T11:06:21.703Z,13.65
2023-02-22T11:08:51.413Z,14.30
2023-02-22T11:11:25.686Z,12.98
2023-02-22T11:13:56.147Z,12.48
2023-02-22T11:16:31.484Z,12.35
2023-02-22T11:19:02.167Z,13.45
2023-02-22T11:21:30.535Z,10.88
2023-02-22T11:24:04.850Z,12.23
2023-02-22T11:26:37.558Z,12.85
2023-02-22T11:29:09.410Z,12.63
2023-02-22T11:31:41.521Z,12.35
2023-02-22T11:34:24.340Z,12.70
2023-02-22T11:36:51.193Z,11.75
2023-02-22T11:39:22.288Z,12.10
2023-02-22T11:41:51.447Z,12.70
2023-02-22T11:44:44.990Z,12.98
2023-02-22T11:47:12.057Z,12.95
2023-02-22T11:49:43.117Z,13.70
2023-02-22T11:52:15.658Z,12.93
2023-02-22T11:55:08.031Z,12.00
2023-02-22T11:57:36.163Z,10.90
2023-02-22T12:00:24.722Z,13.05
2023-02-22T12:03:06.381Z,12.57
2023-02-22T12:05:59.534Z,11.95
2023-02-22T12:08:44.960Z,12.55
2023-02-22T12:11:18.160Z,10.90
2023-02-22T12:13:44.560Z,7.45
2023-02-22T12:16:29.541Z,12.60
2023-02-22T12:19:05.354Z,13.10
2023-02-22T12:21:32.073Z,11.15
2023-02-22T12:24:07.407Z,12.77
2023-02-22T12:26:39.297Z,14.00
2023-02-22T12:29:12.281Z,13.18
2023-02-22T12:31:45.489Z,14.15
2023-02-22T12:34:17.669Z,14.65
2023-02-22T12:36:46.965Z,13.85
2023-02-22T12:39:28.471Z,13.73
2023-02-22T12:41:56.035Z,12.65
2023-02-22T12:44:30.484Z,13.50
2023-02-22T12:46:58.311Z,9.73
2023-02-22T12:49:36.282Z,13.27
2023-02-22T12:52:21.537Z,13.18
2023-02-22T12:54:51.517Z,13.60
2023-02-22T12:57:24.090Z,14.27
2023-02-22T12:59:53.194Z,11.35
2023-02-22T13:02:25.592Z,14.35
2023-02-22T13:04:51.999Z,15.93
2023-02-22T13:07:22.482Z,14.63
2023-02-22T13:10:09.126Z,13.45
2023-02-22T13:12:42.242Z,14.77
2023-02-22T13:15:17.854Z,14.70
2023-02-22T13:17:53.081Z,14.45
2023-02-22T13:20:25.370Z,14.02
2023-02-22T13:23:12.197Z,13.50
2023-02-22T13:25:41.603Z,15.43
2023-02-22T13:28:10.866Z,15.75
2023-02-22T13:31:04.699Z,15.88
2023-02-22T13:33:38.327Z,13.65
2023-02-22T13:36:09.431Z,14.18
2023-02-22T13:38:54.278Z,15.27
2023-02-22T13:41:28.394Z,16.45
2023-02-22T13:44:15.145Z,16.15
2023-02-22T13:46:54.904Z,16.27
2023-02-22T13:49:47.739Z,15.05
2023-02-22T13:52:21.842Z,16.13
2023-02-22T13:54:54.810Z,15.68
2023-02-22T13:57:27.947Z,15.00
2023-02-22T14:00:13.375Z,15.68
2023-02-22T14:02:57.945Z,15.80
2023-02-22T14:05:49.653Z,15.15
2023-02-22T14:08:18.936Z,17.05
2023-02-22T14:10:48.444Z,15.88
2023-02-22T14:13:17.087Z,15.75
2023-02-22T14:16:05.098Z,15.93
2023-02-22T14:18:40.762Z,15.80
2023-02-22T14:21:07.147Z,15.65
2023-02-22T14:23:35.336Z,16.10
2023-02-22T14:26:11.149Z,15.98
2023-02-22T14:40:49.444Z,16.92
2023-02-22T14:43:19.903Z,15.65
2023-02-22T14:45:53.962Z,15.98
2023-02-22T14:48:22.303Z,15.07
2023-02-22T14:50:53.515Z,16.75
2023-02-22T14:53:34.643Z,17.52
2023-02-22T14:56:02.880Z,16.35
2023-02-22T14:58:42.629Z,16.23
2023-02-22T15:01:20.139Z,16.77
2023-02-22T15:03:51.357Z,17.40
2023-02-22T15:06:21.912Z,16.08
2023-02-22T15:08:49.103Z,17.42
2023-02-22T15:11:23.392Z,16.70
2023-02-22T15:13:50.609Z,18.02
2023-02-22T15:16:17.493Z,19.83
2023-02-22T15:18:46.291Z,20.05
2023-02-22T15:21:17.720Z,20.35
2023-02-22T15:23:49.043Z,19.48
2023-02-22T15:26:35.836Z,20.55
2023-02-22T15:29:06.981Z,21.20
2023-02-22T15:31:34.428Z,20.70
2023-02-22T15:34:16.821Z,22.27
2023-02-22T15:36:43.963Z,21.00
2023-02-22T15:39:29.338Z,27.27
2023-02-22T15:42:04.765Z,23.63
2023-02-22T15:44:35.309Z,26.48
2023-02-22T15:47:02.478Z,25.70
2023-02-22T15:49:33.716Z,27.45
2023-02-22T15:52:05.100Z,29.20
2023-02-22T15:54:37.723Z,22.30
2023-02-22T15:57:04.132Z,25.80
2023-02-22T15:59:33.797Z,29.63
2023-02-22T16:02:00.584Z,31.65
2023-02-22T16:04:29.002Z,33.33
2023-02-22T16:07:08.135Z,34.67
2023-02-22T16:09:34.725Z,28.90
2023-02-22T16:12:30.462Z,34.85
2023-02-22T16:14:56.941Z,32.20
2023-02-22T16:17:30.751Z,32.25
2023-02-22T16:19:58.939Z,28.25
2023-02-22T16:22:28.227Z,32.72
2023-02-22T16:24:56.163Z,31.10
2023-02-22T16:27:23.877Z,32.05
2023-02-22T16:30:25.489Z,30.23
2023-02-22T16:32:53.298Z,28.52
2023-02-22T16:35:19.871Z,26.83
2023-02-22T16:37:49.346Z,24.27
2023-02-22T16:40:22.424Z,30.35
2023-02-22T16:42:48.988Z,29.52
2023-02-22T16:45:16.170Z,28.52
2023-02-22T16:47:43.236Z,29.42
2023-02-22T16:50:09.628Z,27.55
2023-02-22T16:52:38.716Z,28.13
2023-02-22T16:55:05.843Z,28.20
2023-02-22T16:57:32.467Z,28.52
2023-02-22T16:59:58.857Z,22.15
2023-02-22T17:02:25.351Z,24.33
2023-02-22T17:04:51.718Z,16.40
2023-02-22T17:07:24.000Z,22.02
2023-02-22T17:09:51.201Z,21.10
2023-02-22T17:12:17.838Z,19.40
2023-02-22T17:14:45.538Z,17.55
2023-02-22T17:17:15.463Z,14.55
2023-02-22T17:19:41.882Z,20.90
2023-02-22T17:22:15.692Z,19.13
2023-02-22T17:24:42.187Z,19.15
2023-02-22T17:27:08.934Z,15.38
2023-02-22T17:29:35.274Z,20.70
2023-02-22T17:32:02.500Z,20.02
2023-02-22T17:34:28.836Z,19.20
2023-02-22T17:36:55.346Z,18.85
2023-02-22T17:39:21.770Z,14.65
2023-02-22T17:41:55.012Z,19.27
2023-02-22T17:44:21.389Z,18.05
2023-02-22T17:46:47.705Z,15.23
2023-02-22T17:49:14.096Z,16.05
2023-02-22T17:51:40.917Z,19.75
2023-02-22T17:54:08.610Z,17.20
2023-02-22T17:56:35.793Z,19.17
2023-02-22T17:59:02.134Z,18.67
2023-02-22T18:01:30.108Z,15.38
2023-02-22T18:03:58.041Z,15.48
2023-02-22T18:06:27.242Z,20.60
2023-02-22T18:08:56.228Z,22.08
2023-02-22T18:11:26.441Z,22.15
2023-02-22T18:13:56.675Z,21.42
2023-02-22T18:16:25.513Z,22.50
2023-02-22T18:18:52.353Z,22.27
2023-02-22T18:21:18.676Z,21.08
2023-02-22T18:23:45.021Z,18.00
2023-02-22T18:26:18.818Z,20.95
2023-02-22T18:28:45.773Z,20.40
2023-02-22T18:31:16.933Z,18.85
2023-02-22T18:33:43.940Z,18.73
2023-02-22T18:36:13.334Z,21.55
2023-02-22T18:38:43.002Z,18.50
2023-02-22T18:41:11.107Z,15.02
2023-02-22T18:43:37.874Z,15.65
2023-02-22T18:46:11.800Z,20.25
2023-02-22T18:48:38.969Z,19.40
2023-02-22T18:51:06.928Z,21.60
2023-02-22T18:53:33.354Z,20.02
2023-02-22T18:56:06.753Z,20.02
2023-02-22T18:58:33.559Z,19.42
2023-02-22T19:01:03.559Z,19.58
2023-02-22T19:03:30.117Z,18.55
2023-02-22T19:06:01.063Z,20.20
2023-02-22T19:08:27.382Z,19.48
2023-02-22T19:10:53.706Z,18.88
2023-02-22T19:13:21.157Z,19.65
2023-02-22T19:15:48.958Z,20.48
2023-02-22T19:18:15.320Z,16.42
2023-02-22T19:20:41.714Z,10.05
2023-02-22T19:23:10.513Z,21.45
2023-02-22T19:25:40.392Z,17.27
2023-02-22T19:28:06.793Z,20.23
2023-02-22T19:30:33.120Z,19.45
2023-02-22T19:32:59.446Z,19.80
2023-02-22T19:35:28.767Z,17.80
2023-02-22T19:37:55.549Z,17.23
2023-02-22T19:40:23.159Z,20.13
2023-02-22T19:42:51.291Z,19.40
2023-02-22T19:45:18.606Z,19.02
2023-02-22T19:47:48.742Z,20.98
2023-02-22T19:50:15.537Z,18.67
2023-02-22T19:52:41.937Z,21.05
2023-02-22T19:55:14.798Z,16.92
2023-02-22T19:57:43.047Z,18.48
2023-02-22T20:00:11.396Z,19.27
2023-02-22T20:02:39.519Z,21.30
2023-02-22T20:05:12.349Z,20.10
2023-02-22T20:07:39.071Z,19.35
2023-02-22T20:10:05.648Z,20.73
2023-02-22T20:12:31.978Z,21.48
2023-02-22T20:14:58.607Z,19.92
2023-02-22T20:17:25.489Z,19.75
2023-02-22T20:19:53.365Z,20.60
2023-02-22T20:22:20.496Z,21.50
2023-02-22T20:24:47.549Z,20.27
2023-02-22T20:27:14.299Z,20.50
2023-02-22T20:29:40.993Z,21.25
2023-02-22T20:32:09.960Z,21.50
2023-02-22T20:34:36.441Z,22.33
2023-02-22T20:37:03.206Z,19.40
2023-02-22T20:39:29.591Z,22.02
2023-02-22T20:41:56.099Z,21.33
2023-02-22T20:44:22.544Z,20.98
2023-02-22T20:46:48.895Z,20.08
2023-02-22T20:49:17.183Z,20.10
2023-02-22T20:51:44.746Z,21.40
2023-02-22T20:54:12.100Z,20.83
2023-02-22T20:56:42.638Z,21.10
2023-02-22T20:59:10.979Z,21.23
2023-02-22T21:01:37.328Z,15.20
2023-02-22T21:04:04.951Z,20.15
2023-02-22T21:06:31.351Z,20.80
2023-02-22T21:08:59.677Z,20.75
2023-02-22T21:11:27.368Z,20.50
2023-02-22T21:13:53.992Z,20.85
2023-02-22T21:16:21.947Z,20.92
2023-02-22T21:18:58.495Z,20.27
2023-02-22T21:21:25.683Z,19.75
2023-02-22T21:23:53.562Z,20.80
2023-02-22T21:26:23.523Z,21.30
2023-02-22T21:28:51.815Z,21.15
2023-02-22T21:31:19.646Z,20.48
2023-02-22T21:33:48.198Z,19.15
2023-02-22T21:36:14.788Z,22.25
2023-02-22T21:38:41.935Z,21.42
2023-02-22T21:41:11.884Z,20.75
2023-02-22T21:43:38.311Z,20.75
2023-02-22T21:46:05.380Z,22.63
2023-02-22T21:48:31.774Z,22.75
2023-02-22T21:50:58.296Z,20.73
2023-02-22T21:53:24.649Z,23.27
2023-02-22T21:55:51.089Z,23.17
2023-02-22T21:58:17.425Z,22.42
2023-02-22T22:00:43.968Z,21.90
2023-02-22T22:03:16.964Z,24.42
2023-02-22T22:05:45.248Z,22.58
2023-02-22T22:08:31.673Z,22.45
2023-02-22T22:10:58.445Z,21.98
2023-02-22T22:13:26.720Z,22.83
2023-02-22T22:15:53.169Z,23.70
2023-02-22T22:18:19.601Z,22.02
2023-02-22T22:20:46.006Z,22.60
2023-02-22T22:23:15.080Z,22.90
2023-02-22T22:25:41.577Z,22.08
2023-02-22T22:28:09.511Z,26.10
2023-02-22T22:30:37.073Z,13.68
2023-02-22T22:33:05.461Z,25.80
2023-02-22T22:35:33.441Z,20.83
2023-02-22T22:38:00.656Z,23.33
2023-02-22T22:40:27.557Z,26.67
2023-02-22T22:42:53.874Z,23.17
2023-02-22T22:45:20.303Z,23.02
2023-02-22T22:47:46.814Z,22.30
2023-02-22T22:50:14.109Z,24.67
2023-02-22T22:52:44.081Z,26.27
2023-02-22T22:55:12.158Z,21.65
2023-02-22T22:57:39.470Z,24.10
2023-02-22T23:00:43.559Z,22.05
2023-02-22T23:03:16.510Z,23.33
2023-02-22T23:05:43.057Z,23.00
2023-02-22T23:08:10.984Z,25.42
2023-02-22T23:10:40.976Z,26.08
2023-02-22T23:13:10.494Z,26.48
2023-02-22T23:15:40.846Z,23.48
2023-02-22T23:18:07.465Z,23.70
2023-02-22T23:20:38.616Z,23.02
2023-02-22T23:23:06.074Z,21.90
2023-02-22T23:25:39.043Z,24.92
2023-02-22T23:28:14.759Z,25.00
2023-02-22T23:33:08.012Z,25.25
2023-02-22T23:35:34.965Z,25.48
2023-02-22T23:38:08.105Z,25.05
2023-02-22T23:40:35.941Z,23.58
2023-02-22T23:43:04.187Z,24.05
2023-02-22T23:45:34.042Z,23.23
2023-02-22T23:48:01.680Z,24.23
2023-02-22T23:50:29.361Z,23.67
2023-02-22T23:52:57.012Z,24.15
2023-02-22T23:55:24.351Z,24.10
2023-02-22T23:57:51.090Z,25.15
